Time;durP1;ratioP1;P1;durP2;ratioP2;P2;SDS_P1;SDS_P2;PMS_P1;PMS_P2;Temp;Humidity;BMP_temperature;BMP_pressure;BME280_temperature;BME280_humidity;BME280_pressure;Samples;Min_cycle;Max_cycle;Signal;HPM_P1;HPM_P2
2022/10/08 00:01:02;;;;;;;9.00;2.70;;;11.70;99.90;;;;;;5133266;27;20175;-54
2022/10/08 00:03:31;;;;;;;10.15;2.63;;;11.70;99.90;;;;;;5133545;27;20227;-54
2022/10/08 00:06:02;;;;;;;5.47;2.25;;;11.70;99.90;;;;;;5133430;27;20191;-54
2022/10/08 00:08:30;;;;;;;9.98;1.98;;;11.70;99.90;;;;;;5133487;27;20170;-54
2022/10/08 00:10:59;;;;;;;4.45;1.88;;;11.70;99.90;;;;;;5133674;27;20175;-54
2022/10/08 00:13:26;;;;;;;12.07;2.50;;;11.70;99.90;;;;;;5133734;27;20220;-54
2022/10/08 00:15:51;;;;;;;8.15;2.22;;;11.60;99.90;;;;;;5133650;27;20582;-54
2022/10/08 00:18:18;;;;;;;6.65;2.30;;;11.70;99.90;;;;;;5133325;27;20164;-54
2022/10/08 00:20:44;;;;;;;7.32;2.25;;;11.70;99.90;;;;;;5133324;27;20182;-54
2022/10/08 00:23:09;;;;;;;6.75;1.83;;;11.70;99.90;;;;;;5133796;27;20160;-54
2022/10/08 00:25:43;;;;;;;7.78;2.67;;;11.70;99.90;;;;;;5133092;27;20268;-54
2022/10/08 00:28:09;;;;;;;7.32;2.00;;;11.70;99.90;;;;;;5133565;27;20229;-54
2022/10/08 00:30:38;;;;;;;5.30;2.20;;;11.70;99.90;;;;;;5133051;27;20168;-54
2022/10/08 00:33:05;;;;;;;3.65;1.77;;;11.70;99.90;;;;;;5133346;27;20171;-54
2022/10/08 00:35:38;;;;;;;7.30;2.03;;;11.70;99.90;;;;;;5133196;27;20770;-54
2022/10/08 00:38:04;;;;;;;7.57;2.15;;;11.70;99.90;;;;;;5132484;27;20220;-54
2022/10/08 00:40:30;;;;;;;12.60;3.80;;;11.70;99.90;;;;;;5133257;27;20176;-54
2022/10/08 00:42:59;;;;;;;10.88;2.63;;;11.70;99.90;;;;;;5133024;27;20585;-54
2022/10/08 00:45:24;;;;;;;11.45;2.80;;;11.70;99.90;;;;;;5133141;27;20214;-54
2022/10/08 00:47:52;;;;;;;7.93;1.90;;;11.80;99.90;;;;;;5132967;27;20629;-55
2022/10/08 00:50:29;;;;;;;4.30;1.80;;;11.80;99.90;;;;;;5133141;27;20168;-55
2022/10/08 00:53:00;;;;;;;8.35;2.25;;;11.80;99.90;;;;;;5132801;27;20167;-55
2022/10/08 00:55:27;;;;;;;6.95;2.35;;;11.70;99.90;;;;;;5132819;27;20215;-55
2022/10/08 00:57:57;;;;;;;9.90;2.70;;;11.70;99.90;;;;;;5132969;27;20179;-55
2022/10/08 01:00:24;;;;;;;4.35;2.53;;;11.70;99.90;;;;;;5132987;27;20203;-54
2022/10/08 01:02:50;;;;;;;11.50;2.05;;;11.70;99.90;;;;;;5132688;27;20175;-55
2022/10/08 01:05:23;;;;;;;6.93;2.13;;;11.70;99.90;;;;;;5132613;27;20164;-55
2022/10/08 01:08:04;;;;;;;8.55;2.95;;;11.70;99.90;;;;;;5132814;27;20640;-55
2022/10/08 01:10:57;;;;;;;6.72;2.15;;;11.70;99.90;;;;;;5132630;27;20532;-55
2022/10/08 01:13:28;;;;;;;10.07;2.35;;;11.60;99.90;;;;;;5132642;27;20247;-54
2022/10/08 01:16:09;;;;;;;5.22;1.65;;;11.60;99.90;;;;;;5132599;27;20167;-55
2022/10/08 01:18:57;;;;;;;9.88;2.47;;;11.60;99.90;;;;;;5132617;27;20167;-55
2022/10/08 01:21:36;;;;;;;7.18;2.10;;;11.60;99.90;;;;;;5132542;27;20160;-54
2022/10/08 01:24:22;;;;;;;6.32;2.05;;;11.50;99.90;;;;;;5132537;27;20258;-54
2022/10/08 01:26:56;;;;;;;7.68;2.50;;;11.50;99.90;;;;;;5132462;27;20664;-54
2022/10/08 01:29:31;;;;;;;12.65;2.47;;;11.50;99.90;;;;;;5132464;27;20186;-55
2022/10/08 01:32:19;;;;;;;8.73;2.13;;;11.50;99.90;;;;;;5132429;27;20164;-54
2022/10/08 01:34:46;;;;;;;10.82;2.83;;;11.50;99.90;;;;;;5132452;27;20153;-54
2022/10/08 01:37:20;;;;;;;13.38;2.40;;;11.50;99.90;;;;;;5132678;27;20172;-54
2022/10/08 01:39:47;;;;;;;8.43;1.90;;;11.60;99.90;;;;;;5132326;27;20172;-54
2022/10/08 01:42:14;;;;;;;10.48;2.17;;;11.60;99.90;;;;;;5132374;27;20164;-54
2022/10/08 01:44:46;;;;;;;14.90;2.67;;;11.60;99.90;;;;;;5133003;27;20172;-54
2022/10/08 01:47:16;;;;;;;7.03;2.17;;;11.70;99.90;;;;;;5131017;28;20263;-54
2022/10/08 01:49:50;;;;;;;7.57;1.77;;;11.70;99.90;;;;;;5135703;27;20160;-54
2022/10/08 01:52:22;;;;;;;6.53;2.38;;;11.70;99.90;;;;;;5134926;27;20171;-54
2022/10/08 01:54:50;;;;;;;7.65;1.85;;;11.70;99.90;;;;;;5136014;27;20164;-54
2022/10/08 01:57:16;;;;;;;12.30;2.78;;;11.70;99.90;;;;;;5136301;27;20645;-54
2022/10/08 01:59:52;;;;;;;7.57;2.08;;;11.70;99.90;;;;;;5134758;27;20196;-54
2022/10/08 02:02:22;;;;;;;7.32;1.90;;;11.70;99.90;;;;;;5136196;27;20159;-54
2022/10/08 02:04:50;;;;;;;7.53;2.25;;;11.70;99.90;;;;;;5135992;27;20160;-54
2022/10/08 02:07:19;;;;;;;6.05;2.20;;;11.70;99.90;;;;;;5136105;27;20541;-54
2022/10/08 02:09:51;;;;;;;9.88;2.53;;;11.70;99.90;;;;;;5135866;27;20199;-54
2022/10/08 02:12:19;;;;;;;8.73;2.60;;;11.70;99.90;;;;;;5136091;27;20168;-54
2022/10/08 02:14:51;;;;;;;9.65;2.40;;;11.70;99.90;;;;;;5136071;27;20509;-54
2022/10/08 02:17:45;;;;;;;9.15;2.47;;;11.70;99.90;;;;;;5136014;27;20536;-54
2022/10/08 02:20:31;;;;;;;8.73;1.95;;;11.70;99.90;;;;;;5135585;27;20685;-55
2022/10/08 02:23:08;;;;;;;7.93;2.63;;;11.70;99.90;;;;;;5135580;27;20160;-54
2022/10/08 02:25:50;;;;;;;12.73;2.35;;;11.70;99.90;;;;;;5135388;27;20195;-54
2022/10/08 02:28:43;;;;;;;4.13;1.80;;;11.70;99.90;;;;;;5135577;27;20532;-54
2022/10/08 02:31:16;;;;;;;6.55;2.10;;;11.70;99.90;;;;;;5135752;27;20160;-54
2022/10/08 02:33:53;;;;;;;6.45;2.22;;;11.70;99.90;;;;;;5135626;27;20168;-54
2022/10/08 02:36:40;;;;;;;9.77;2.45;;;11.60;99.90;;;;;;5135296;27;20301;-54
2022/10/08 02:39:08;;;;;;;5.82;1.50;;;11.60;99.90;;;;;;5135643;27;20164;-55
2022/10/08 02:41:39;;;;;;;14.30;2.70;;;11.60;99.90;;;;;;5135256;27;20182;-54
2022/10/08 02:44:10;;;;;;;5.90;2.10;;;11.60;99.90;;;;;;5135518;27;20168;-54
2022/10/08 02:46:39;;;;;;;9.00;2.03;;;11.60;99.90;;;;;;5135631;27;20556;-54
2022/10/08 02:49:09;;;;;;;8.15;2.47;;;11.60;99.90;;;;;;5135122;27;20252;-54
2022/10/08 02:51:38;;;;;;;8.10;3.03;;;11.60;99.90;;;;;;5134164;27;20161;-54
2022/10/08 02:54:06;;;;;;;9.85;2.53;;;11.60;99.90;;;;;;5135010;27;20659;-54
2022/10/08 02:56:40;;;;;;;9.02;2.30;;;11.60;99.90;;;;;;5134662;27;20732;-54
2022/10/08 02:59:09;;;;;;;4.68;2.35;;;11.60;99.90;;;;;;5135267;27;20299;-54
2022/10/08 03:01:42;;;;;;;8.55;2.20;;;11.60;99.90;;;;;;5134863;27;20164;-54
2022/10/08 03:04:26;;;;;;;9.18;2.13;;;11.60;99.90;;;;;;5135415;27;20168;-54
2022/10/08 03:06:53;;;;;;;11.52;2.30;;;11.60;99.90;;;;;;5134677;27;20199;-55
2022/10/08 03:09:22;;;;;;;6.13;2.00;;;11.60;99.90;;;;;;5133448;27;20255;-54
2022/10/08 03:11:48;;;;;;;7.80;2.00;;;11.60;99.90;;;;;;5134591;27;20225;-54
2022/10/08 03:14:16;;;;;;;8.05;2.55;;;11.50;99.90;;;;;;5134742;27;20172;-54
2022/10/08 03:16:44;;;;;;;7.47;2.25;;;11.50;99.90;;;;;;5134485;27;20164;-54
2022/10/08 03:19:12;;;;;;;7.75;2.15;;;11.50;99.90;;;;;;5134531;27;20163;-54
2022/10/08 03:21:40;;;;;;;8.07;1.92;;;11.50;99.90;;;;;;5133488;27;20168;-54
2022/10/08 03:24:07;;;;;;;9.43;2.30;;;11.50;99.90;;;;;;5134781;27;20171;-54
2022/10/08 03:26:32;;;;;;;8.98;2.33;;;11.50;99.90;;;;;;5134027;27;20687;-54
2022/10/08 03:28:58;;;;;;;7.05;2.03;;;11.50;99.90;;;;;;5134068;27;20192;-55
2022/10/08 03:31:23;;;;;;;5.30;2.30;;;11.50;99.90;;;;;;5134331;27;20163;-54
2022/10/08 03:33:50;;;;;;;7.35;1.88;;;11.50;99.90;;;;;;5134205;27;20170;-54
2022/10/08 03:36:16;;;;;;;8.85;2.00;;;11.50;99.90;;;;;;5134364;27;20171;-55
2022/10/08 03:38:42;;;;;;;8.68;2.08;;;11.50;99.90;;;;;;5134139;27;20172;-54
2022/10/08 03:41:08;;;;;;;11.88;2.05;;;11.50;99.90;;;;;;5134339;27;20657;-54
2022/10/08 03:43:34;;;;;;;7.70;2.10;;;11.50;99.90;;;;;;5134255;27;20516;-54
2022/10/08 03:46:01;;;;;;;8.80;2.20;;;11.50;99.90;;;;;;5133883;27;20253;-54
2022/10/08 03:48:27;;;;;;;6.80;2.10;;;11.60;99.90;;;;;;5132615;27;20737;-54
2022/10/08 03:51:02;;;;;;;13.60;2.67;;;11.60;99.90;;;;;;5133986;27;20172;-54
2022/10/08 03:53:30;;;;;;;10.57;2.33;;;11.60;99.90;;;;;;5134037;27;20190;-54
2022/10/08 03:56:00;;;;;;;10.93;2.70;;;11.60;99.90;;;;;;5133675;27;20220;-55
2022/10/08 03:58:25;;;;;;;9.00;2.10;;;11.60;99.90;;;;;;5133917;27;20163;-54
2022/10/08 04:01:04;;;;;;;9.27;1.98;;;11.60;99.90;;;;;;5133671;27;20527;-54
2022/10/08 04:03:30;;;;;;;6.72;2.03;;;11.60;99.90;;;;;;5133091;27;20174;-54
2022/10/08 04:05:56;;;;;;;7.97;2.35;;;11.70;99.90;;;;;;5133526;27;20286;-54
2022/10/08 04:08:22;;;;;;;5.90;2.53;;;11.70;99.90;;;;;;5133486;27;20529;-54
2022/10/08 04:10:48;;;;;;;5.60;2.70;;;11.60;99.90;;;;;;5133525;27;20247;-54
2022/10/08 04:13:14;;;;;;;4.45;2.17;;;11.70;99.90;;;;;;5131353;27;20168;-54
2022/10/08 04:15:41;;;;;;;10.63;2.40;;;11.70;99.90;;;;;;5132869;27;20577;-54
2022/10/08 04:18:07;;;;;;;6.70;2.10;;;11.70;99.90;;;;;;5133151;27;20156;-54
2022/10/08 04:20:33;;;;;;;12.00;2.38;;;11.70;99.90;;;;;;5133581;27;20179;-54
2022/10/08 04:22:58;;;;;;;9.32;2.38;;;11.80;99.90;;;;;;5133099;27;20250;-54
2022/10/08 04:25:24;;;;;;;6.57;1.92;;;11.80;99.90;;;;;;5132774;27;20236;-54
2022/10/08 04:27:49;;;;;;;7.70;2.30;;;11.80;99.90;;;;;;5133424;27;20636;-54
2022/10/08 04:30:16;;;;;;;11.13;2.08;;;11.80;99.90;;;;;;5133118;27;20270;-55
2022/10/08 04:32:41;;;;;;;8.80;2.63;;;11.80;99.90;;;;;;5133097;27;20176;-54
2022/10/08 04:35:08;;;;;;;6.18;2.30;;;11.80;99.90;;;;;;5133584;27;20168;-54
2022/10/08 04:37:33;;;;;;;5.35;2.00;;;11.70;99.90;;;;;;5133024;27;20164;-54
2022/10/08 04:39:59;;;;;;;6.97;2.50;;;11.70;99.90;;;;;;5131772;27;20179;-54
2022/10/08 04:42:25;;;;;;;6.55;2.80;;;11.70;99.90;;;;;;5132997;27;20499;-54
2022/10/08 04:44:50;;;;;;;9.43;2.83;;;11.70;99.90;;;;;;5132978;27;20204;-54
2022/10/08 04:47:16;;;;;;;6.05;3.03;;;11.70;99.90;;;;;;5133089;27;20210;-54
2022/10/08 04:49:42;;;;;;;9.07;2.45;;;11.70;99.90;;;;;;5132910;27;20583;-55
2022/10/08 04:52:07;;;;;;;11.93;2.80;;;11.70;99.90;;;;;;5131886;27;20540;-54
2022/10/08 04:54:33;;;;;;;10.35;2.90;;;11.70;99.90;;;;;;5132456;27;20195;-54
2022/10/08 04:56:58;;;;;;;10.32;3.20;;;11.70;99.90;;;;;;5132640;27;20622;-54
2022/10/08 04:59:24;;;;;;;5.82;2.70;;;13.00;99.90;;;;;;5132810;27;20255;-54
2022/10/08 05:01:51;;;;;;;11.38;3.15;;;11.70;99.90;;;;;;5132738;27;20172;-55
2022/10/08 05:04:17;;;;;;;8.60;3.45;;;11.70;99.90;;;;;;5131739;28;20533;-55
2022/10/08 05:06:42;;;;;;;9.75;3.58;;;11.70;99.90;;;;;;5132658;27;20195;-55
2022/10/08 05:09:08;;;;;;;5.10;2.45;;;11.70;99.90;;;;;;5133038;27;20196;-55
2022/10/08 05:11:33;;;;;;;7.22;3.22;;;11.70;99.90;;;;;;5132662;27;20175;-55
2022/10/08 05:13:59;;;;;;;8.55;3.22;;;11.70;99.90;;;;;;5132692;27;20175;-55
2022/10/08 05:16:26;;;;;;;7.03;2.83;;;11.70;99.90;;;;;;5132631;27;20209;-55
2022/10/08 05:18:52;;;;;;;6.65;3.03;;;11.70;99.90;;;;;;5132912;27;20171;-54
2022/10/08 05:21:22;;;;;;;8.25;3.20;;;11.70;99.90;;;;;;5132599;27;20187;-55
2022/10/08 05:23:56;;;;;;;11.13;3.35;;;11.70;99.90;;;;;;5134791;27;20160;-55
2022/10/08 05:26:25;;;;;;;7.63;3.08;;;11.70;99.90;;;;;;5136327;27;20743;-55
2022/10/08 05:28:56;;;;;;;10.48;2.97;;;11.70;99.90;;;;;;5136654;27;20167;-55
2022/10/08 05:31:23;;;;;;;7.40;3.63;;;11.70;99.90;;;;;;5136684;27;20191;-55
2022/10/08 05:33:49;;;;;;;5.90;2.60;;;11.70;99.90;;;;;;5136621;27;20175;-55
2022/10/08 05:36:27;;;;;;;8.63;3.33;;;11.70;99.90;;;;;;5136464;27;20164;-55
2022/10/08 05:38:57;;;;;;;7.95;3.65;;;11.70;99.90;;;;;;5136468;27;20160;-55
2022/10/08 05:41:26;;;;;;;7.25;2.90;;;11.70;99.90;;;;;;5136659;27;20579;-56
2022/10/08 05:43:53;;;;;;;7.65;3.40;;;11.70;99.90;;;;;;5129884;27;20188;-55
2022/10/08 05:46:19;;;;;;;9.85;3.78;;;11.60;99.90;;;;;;5126375;27;20207;-55
2022/10/08 05:48:45;;;;;;;9.40;4.38;;;11.70;99.90;;;;;;5125188;27;20197;-55
2022/10/08 05:51:13;;;;;;;11.52;3.72;;;11.70;99.90;;;;;;5135920;27;20643;-55
2022/10/08 05:53:41;;;;;;;8.82;4.05;;;11.60;99.90;;;;;;5136239;27;20631;-55
2022/10/08 05:56:10;;;;;;;6.68;3.40;;;11.70;99.90;;;;;;5136326;27;20219;-55
2022/10/08 05:58:38;;;;;;;6.88;3.75;;;11.70;99.90;;;;;;5136376;27;20178;-55
2022/10/08 06:01:06;;;;;;;5.82;3.35;;;11.70;99.90;;;;;;5136305;27;20251;-55
2022/10/08 06:03:32;;;;;;;5.15;3.88;;;11.70;99.90;;;;;;5136080;27;20195;-55
2022/10/08 06:06:05;;;;;;;7.05;3.97;;;11.70;99.90;;;;;;5135881;27;20664;-55
2022/10/08 06:08:32;;;;;;;10.48;4.82;;;11.80;99.90;;;;;;5135970;27;20176;-55
2022/10/08 06:10:57;;;;;;;7.63;4.47;;;11.70;99.90;;;;;;5135872;27;20207;-55
2022/10/08 06:13:24;;;;;;;14.07;5.05;;;11.80;99.90;;;;;;5135745;27;20164;-55
2022/10/08 06:15:55;;;;;;;7.43;4.82;;;11.80;99.90;;;;;;5135997;27;20172;-55
2022/10/08 06:18:22;;;;;;;8.50;4.78;;;11.80;99.90;;;;;;5135935;27;20255;-55
2022/10/08 06:20:48;;;;;;;10.45;4.65;;;11.90;99.90;;;;;;5135643;27;20164;-55
2022/10/08 06:23:14;;;;;;;6.75;5.15;;;11.90;99.90;;;;;;5135822;27;20172;-55
2022/10/08 06:25:39;;;;;;;10.60;5.80;;;11.90;99.90;;;;;;5135393;27;20340;-55
2022/10/08 06:28:05;;;;;;;8.65;4.65;;;11.90;99.90;;;;;;5135732;27;20228;-55
2022/10/08 06:30:30;;;;;;;12.07;5.50;;;11.90;99.90;;;;;;5135307;27;20168;-55
2022/10/08 06:32:56;;;;;;;12.00;5.75;;;12.00;99.90;;;;;;5135502;27;20562;-55
2022/10/08 06:35:21;;;;;;;13.95;5.57;;;11.90;99.90;;;;;;5134375;27;20168;-55
2022/10/08 06:37:48;;;;;;;10.40;4.75;;;11.90;99.90;;;;;;5135147;27;20172;-55
2022/10/08 06:40:13;;;;;;;14.40;6.30;;;12.00;99.90;;;;;;5135106;27;20213;-55
2022/10/08 06:42:39;;;;;;;11.88;6.10;;;12.00;99.90;;;;;;5135077;27;20164;-55
2022/10/08 06:45:05;;;;;;;16.23;6.13;;;12.00;99.90;;;;;;5135429;27;20195;-55
2022/10/08 06:47:31;;;;;;;7.38;5.60;;;12.00;99.90;;;;;;5135249;27;20223;-55
2022/10/08 06:49:56;;;;;;;11.35;7.10;;;12.00;99.90;;;;;;5134922;27;20164;-55
2022/10/08 06:52:22;;;;;;;13.82;6.45;;;12.10;99.90;;;;;;5134999;27;20168;-55
2022/10/08 06:54:47;;;;;;;10.27;5.53;;;12.10;99.90;;;;;;5134837;27;20224;-55
2022/10/08 06:57:13;;;;;;;6.72;4.72;;;12.10;99.90;;;;;;5134975;27;20175;-55
2022/10/08 06:59:38;;;;;;;12.05;6.25;;;12.20;99.90;;;;;;5134932;27;20164;-55
2022/10/08 07:02:04;;;;;;;13.40;5.97;;;12.20;99.90;;;;;;5135317;27;20174;-55
2022/10/08 07:04:29;;;;;;;13.00;5.63;;;12.30;99.90;;;;;;5134778;27;20516;-55
2022/10/08 07:06:55;;;;;;;10.65;5.63;;;12.30;99.90;;;;;;5134737;27;20199;-55
2022/10/08 07:09:20;;;;;;;12.90;6.30;;;12.30;99.90;;;;;;5134776;27;20501;-55
2022/10/08 07:11:46;;;;;;;9.27;6.15;;;12.30;99.90;;;;;;5134696;27;20580;-55
2022/10/08 07:14:11;;;;;;;10.60;4.93;;;12.40;99.90;;;;;;5134714;27;20570;-55
2022/10/08 07:16:37;;;;;;;10.35;6.00;;;12.60;99.90;;;;;;5135171;27;20172;-55
2022/10/08 07:19:02;;;;;;;12.82;6.65;;;12.80;99.90;;;;;;5134529;27;20685;-55
2022/10/08 07:21:29;;;;;;;11.98;5.78;;;12.90;99.90;;;;;;5134490;27;20704;-55
2022/10/08 07:23:55;;;;;;;10.45;6.00;;;12.90;99.90;;;;;;5134429;27;20667;-55
2022/10/08 07:26:23;;;;;;;7.88;5.45;;;12.90;99.90;;;;;;5134324;27;20211;-55
2022/10/08 07:28:54;;;;;;;11.70;6.00;;;12.80;99.90;;;;;;5134273;27;20164;-55
2022/10/08 07:31:28;;;;;;;11.88;6.28;;;12.90;99.90;;;;;;5134367;27;20171;-55
2022/10/08 07:33:54;;;;;;;10.73;6.32;;;12.80;99.90;;;;;;5134176;27;20159;-55
2022/10/08 07:36:22;;;;;;;13.90;6.88;;;12.80;99.90;;;;;;5134220;27;20182;-55
2022/10/08 07:38:51;;;;;;;14.40;6.70;;;12.90;99.90;;;;;;5134383;27;20202;-55
2022/10/08 07:41:16;;;;;;;10.70;6.05;;;13.10;99.90;;;;;;5132766;27;20172;-55
2022/10/08 07:43:42;;;;;;;14.23;6.60;;;13.10;99.90;;;;;;5134022;27;20168;-55
2022/10/08 07:46:10;;;;;;;9.20;5.97;;;13.10;99.90;;;;;;5134293;27;20264;-55
2022/10/08 07:48:36;;;;;;;19.10;6.68;;;13.20;99.90;;;;;;5134262;27;20175;-55
2022/10/08 07:51:16;;;;;;;13.75;7.45;;;13.10;99.90;;;;;;5133835;27;20515;-55
2022/10/08 07:53:43;;;;;;;14.75;6.97;;;13.20;99.90;;;;;;5134084;27;20189;-55
2022/10/08 07:56:10;;;;;;;13.30;6.80;;;13.40;99.90;;;;;;5133603;27;20209;-55
2022/10/08 07:58:37;;;;;;;12.77;6.80;;;13.60;99.90;;;;;;5134090;27;20172;-55
2022/10/08 08:01:04;;;;;;;14.40;7.75;;;13.60;99.90;;;;;;5133947;27;20209;-55
2022/10/08 08:03:30;;;;;;;12.18;6.85;;;13.60;99.90;;;;;;5133561;27;20628;-55
2022/10/08 08:06:13;;;;;;;15.15;6.32;;;13.90;99.90;;;;;;5133536;27;20243;-55
2022/10/08 08:08:40;;;;;;;9.90;6.63;;;14.00;99.90;;;;;;5133539;27;20711;-55
2022/10/08 08:11:07;;;;;;;13.20;6.80;;;14.00;99.90;;;;;;5133955;27;20172;-55
2022/10/08 08:13:35;;;;;;;16.80;7.00;;;14.00;99.90;;;;;;5133797;27;20160;-55
2022/10/08 08:16:06;;;;;;;9.75;6.45;;;14.00;99.90;;;;;;5133651;27;20179;-55
2022/10/08 08:18:35;;;;;;;12.68;5.95;;;14.10;99.90;;;;;;5133405;27;20530;-55
2022/10/08 08:21:06;;;;;;;12.57;5.55;;;14.20;99.90;;;;;;5133318;27;20194;-55
2022/10/08 08:23:37;;;;;;;8.93;5.75;;;14.30;99.90;;;;;;5133289;27;20172;-55
2022/10/08 08:26:05;;;;;;;10.27;5.43;;;14.30;99.90;;;;;;5133497;27;20191;-55
2022/10/08 08:28:32;;;;;;;10.20;6.25;;;14.40;99.90;;;;;;5133228;27;20179;-55
2022/10/08 08:31:07;;;;;;;15.95;5.38;;;14.60;99.90;;;;;;5133113;27;20168;-55
2022/10/08 08:33:32;;;;;;;15.43;6.15;;;14.60;99.90;;;;;;5133124;27;20164;-55
2022/10/08 08:35:58;;;;;;;15.23;6.07;;;14.70;99.90;;;;;;5133124;27;20179;-55
2022/10/08 08:38:23;;;;;;;12.20;6.18;;;14.80;99.90;;;;;;5133055;27;20166;-55
2022/10/08 08:40:51;;;;;;;8.75;5.30;;;14.90;99.90;;;;;;5131699;27;20259;-55
2022/10/08 08:43:17;;;;;;;11.80;5.90;;;15.00;99.90;;;;;;5133023;27;20183;-55
2022/10/08 08:45:45;;;;;;;13.60;5.60;;;15.20;99.90;;;;;;5133197;27;20264;-55
2022/10/08 08:48:25;;;;;;;10.50;5.15;;;15.30;99.90;;;;;;5132971;27;20179;-55
2022/10/08 08:50:55;;;;;;;12.88;5.18;;;15.20;99.90;;;;;;5132900;27;20172;-55
2022/10/08 08:53:22;;;;;;;11.20;4.97;;;15.20;99.90;;;;;;5132804;27;20689;-55
2022/10/08 08:55:57;;;;;;;11.90;4.72;;;15.20;99.90;;;;;;5132648;27;20232;-55
2022/10/08 08:58:46;;;;;;;14.65;5.82;;;15.10;99.90;;;;;;5132289;27;20168;-55
2022/10/08 09:01:31;;;;;;;9.43;5.00;;;14.90;99.90;;;;;;5132826;27;20160;-55
2022/10/08 09:04:22;;;;;;;9.13;5.32;;;15.10;99.90;;;;;;5132747;27;20171;-55
2022/10/08 09:06:50;;;;;;;6.32;4.22;;;15.30;99.90;;;;;;5132659;27;20204;-55
2022/10/08 09:09:30;;;;;;;9.32;5.75;;;15.30;99.90;;;;;;5132664;27;20164;-55
2022/10/08 09:11:56;;;;;;;13.65;5.22;;;15.20;99.90;;;;;;5132678;27;20167;-55
2022/10/08 09:14:34;;;;;;;10.52;5.28;;;15.30;99.90;;;;;;5132677;27;20241;-55
2022/10/08 09:17:13;;;;;;;8.23;5.30;;;15.40;99.90;;;;;;5132544;27;20522;-55
2022/10/08 09:19:40;;;;;;;11.27;5.10;;;15.60;99.90;;;;;;5132834;27;20171;-55
2022/10/08 09:22:19;;;;;;;7.72;4.05;;;15.60;99.90;;;;;;5133196;27;20292;-55
2022/10/08 09:24:48;;;;;;;9.38;4.35;;;15.30;99.90;;;;;;5132520;27;20629;-55
2022/10/08 09:27:15;;;;;;;12.27;4.30;;;15.10;99.90;;;;;;5132470;27;20695;-55
2022/10/08 09:29:40;;;;;;;10.27;4.13;;;15.40;99.90;;;;;;5132429;27;20164;-55
2022/10/08 09:32:14;;;;;;;12.45;4.40;;;15.20;99.90;;;;;;5132830;27;20175;-55
2022/10/08 09:34:39;;;;;;;8.07;3.90;;;15.50;99.90;;;;;;5132458;27;20160;-55
2022/10/08 09:37:18;;;;;;;11.68;4.30;;;15.50;99.90;;;;;;5132868;27;20251;-55
2022/10/08 09:40:12;;;;;;;5.78;3.50;;;15.80;99.90;;;;;;5132411;27;20179;-55
2022/10/08 09:42:38;;;;;;;8.63;3.80;;;15.70;99.90;;;;;;5132372;27;20246;-55
2022/10/08 09:45:28;;;;;;;11.10;3.92;;;15.80;99.90;;;;;;5132674;27;20207;-55
2022/10/08 09:48:21;;;;;;;8.38;3.83;;;16.10;99.90;;;;;;5132363;27;20176;-55
2022/10/08 09:51:01;;;;;;;4.88;3.30;;;16.30;99.90;;;;;;5132584;27;20240;-55
2022/10/08 09:53:33;;;;;;;9.77;3.78;;;15.80;99.90;;;;;;5132589;27;20168;-55
2022/10/08 09:56:02;;;;;;;10.45;3.65;;;15.70;99.90;;;;;;5132042;27;20208;-55
2022/10/08 09:58:34;;;;;;;6.15;2.80;;;15.50;99.90;;;;;;5132045;27;20167;-55
2022/10/08 10:01:13;;;;;;;6.72;3.22;;;15.40;99.90;;;;;;5131302;28;20160;-55
2022/10/08 10:03:39;;;;;;;5.65;2.70;;;15.20;99.90;;;;;;5132482;27;20267;-55
2022/10/08 10:06:05;;;;;;;8.35;2.60;;;15.10;99.90;;;;;;5132461;27;20270;-55
2022/10/08 10:09:11;;;;;;;10.55;2.60;;;15.00;99.90;;;;;;5132396;27;20636;-55
2022/10/08 10:11:46;;;;;;;7.53;2.53;;;14.90;99.90;;;;;;5100703;27;20192;-55
2022/10/08 10:14:42;;;;;;;12.48;3.00;;;14.80;99.90;;;;;;5135828;27;20172;-55
2022/10/08 10:17:24;;;;;;;7.78;2.65;;;14.90;99.90;;;;;;5135758;27;20171;-55
2022/10/08 10:20:06;;;;;;;9.23;2.75;;;14.90;99.90;;;;;;5135642;27;20632;-55
2022/10/08 10:22:40;;;;;;;6.13;2.20;;;15.10;99.90;;;;;;5135227;27;20621;-55
2022/10/08 10:25:21;;;;;;;7.82;2.72;;;15.50;99.90;;;;;;5135835;27;20163;-55
2022/10/08 10:27:55;;;;;;;4.90;1.90;;;15.70;99.90;;;;;;5135479;27;20204;-55
2022/10/08 10:30:22;;;;;;;5.07;2.10;;;15.40;99.90;;;;;;5135237;27;20163;-55
2022/10/08 10:32:59;;;;;;;6.88;2.47;;;15.30;99.90;;;;;;5135372;27;20194;-55
2022/10/08 10:35:27;;;;;;;6.03;2.53;;;15.30;99.90;;;;;;5135348;27;20750;-55
2022/10/08 10:38:20;;;;;;;9.77;2.70;;;15.30;99.90;;;;;;5135263;27;20312;-56
2022/10/08 10:40:50;;;;;;;7.93;3.00;;;15.20;99.90;;;;;;5129455;27;20532;-55
2022/10/08 10:43:49;;;;;;;5.47;2.45;;;15.30;99.90;;;;;;5135520;27;20168;-55
2022/10/08 10:46:36;;;;;;;6.45;2.45;;;15.10;99.90;;;;;;5135376;27;20204;-54
2022/10/08 10:49:08;;;;;;;11.15;2.42;;;15.00;99.90;;;;;;5135738;27;20176;-55
2022/10/08 10:52:00;;;;;;;7.95;2.50;;;15.30;99.90;;;;;;5135764;27;20224;-55
2022/10/08 10:54:28;;;;;;;5.65;2.15;;;15.20;99.90;;;;;;5135011;27;20695;-54
2022/10/08 10:57:01;;;;;;;6.53;2.17;;;15.40;99.90;;;;;;5134720;27;20244;-54
2022/10/08 10:59:35;;;;;;;8.23;1.95;;;15.30;99.90;;;;;;5134965;27;20690;-54
2022/10/08 11:02:21;;;;;;;13.82;2.92;;;15.30;99.90;;;;;;5134876;27;20708;-54
2022/10/08 11:05:04;;;;;;;5.50;2.28;;;15.10;99.90;;;;;;5134004;27;20164;-55
2022/10/08 11:07:49;;;;;;;5.47;2.28;;;15.00;99.90;;;;;;5134523;27;20253;-55
2022/10/08 11:10:34;;;;;;;5.50;1.85;;;15.00;99.90;;;;;;5134509;27;20222;-54
2022/10/08 11:13:31;;;;;;;5.30;2.17;;;14.90;99.90;;;;;;5134490;27;20633;-54
2022/10/08 11:16:27;;;;;;;6.63;1.92;;;14.90;99.90;;;;;;5134290;27;20160;-54
2022/10/08 11:18:56;;;;;;;8.55;2.50;;;15.40;99.90;;;;;;5134020;27;20701;-54
2022/10/08 11:21:37;;;;;;;7.40;2.33;;;15.80;99.90;;;;;;5133755;27;20190;-54
2022/10/08 11:24:27;;;;;;;6.43;2.20;;;16.20;99.90;;;;;;5134309;27;20527;-54
2022/10/08 11:27:21;;;;;;;7.75;2.25;;;16.10;99.90;;;;;;5132791;27;20260;-54
2022/10/08 11:30:12;;;;;;;11.27;2.20;;;16.00;99.90;;;;;;5132895;27;20163;-54
2022/10/08 11:32:43;;;;;;;12.27;2.38;;;15.70;99.90;;;;;;5134307;27;20244;-54
2022/10/08 11:35:18;;;;;;;7.95;2.63;;;15.80;99.90;;;;;;5133763;27;20166;-54
2022/10/08 11:38:13;;;;;;;6.68;1.70;;;15.20;99.90;;;;;;5133918;27;20170;-54
2022/10/08 11:41:15;;;;;;;6.13;1.73;;;15.20;99.90;;;;;;5133888;27;20164;-54
2022/10/08 11:43:52;;;;;;;2.50;1.50;;;15.00;99.90;;;;;;5111506;27;20179;-54
2022/10/08 11:46:27;;;;;;;10.13;2.33;;;14.90;99.90;;;;;;5133609;27;20203;-54
2022/10/08 11:48:54;;;;;;;6.90;1.90;;;15.10;99.90;;;;;;5132218;27;20164;-54
2022/10/08 11:51:20;;;;;;;9.15;1.80;;;15.60;99.90;;;;;;5132402;27;20186;-54
2022/10/08 11:54:07;;;;;;;4.75;1.80;;;15.80;99.90;;;;;;5133664;27;20626;-54
2022/10/08 11:56:36;;;;;;;6.80;1.70;;;16.00;99.90;;;;;;5133470;27;20684;-54
2022/10/08 11:59:14;;;;;;;8.60;2.92;;;16.10;99.90;;;;;;5132371;27;20537;-54
2022/10/08 12:01:56;;;;;;;3.15;1.50;;;16.30;99.90;;;;;;5133286;27;20260;-54
2022/10/08 12:04:47;;;;;;;6.40;2.20;;;16.30;99.90;;;;;;5133840;27;20196;-54
2022/10/08 12:07:21;;;;;;;5.03;2.25;;;16.40;99.90;;;;;;5133517;27;20195;-54
2022/10/08 12:10:22;;;;;;;2.03;1.30;;;16.50;99.90;;;;;;5133564;27;20179;-54
2022/10/08 12:12:48;;;;;;;6.38;1.60;;;13.50;99.90;;;;;;5131221;27;20187;-54
2022/10/08 12:15:22;;;;;;;2.97;1.50;;;16.70;99.90;;;;;;5133408;27;20499;-54
2022/10/08 12:17:57;;;;;;;4.13;1.45;;;16.80;99.90;;;;;;5133462;27;20202;-54
2022/10/08 12:20:36;;;;;;;2.53;1.17;;;16.50;99.90;;;;;;5133303;27;20164;-54
2022/10/08 12:23:04;;;;;;;4.65;1.30;;;16.20;99.90;;;;;;5133309;27;20653;-54
2022/10/08 12:25:43;;;;;;;7.80;1.58;;;16.40;99.90;;;;;;5133189;27;20209;-54
2022/10/08 12:28:18;;;;;;;5.00;1.75;;;16.50;99.90;;;;;;5133032;27;20167;-54
2022/10/08 12:30:57;;;;;;;8.18;1.85;;;16.60;99.90;;;;;;5133357;27;20297;-54
2022/10/08 12:33:24;;;;;;;4.40;1.50;;;16.90;99.90;;;;;;5132306;27;20632;-54
2022/10/08 12:36:02;;;;;;;6.25;1.52;;;16.80;99.90;;;;;;5133018;27;20172;-54
2022/10/08 12:38:50;;;;;;;2.10;1.38;;;16.80;99.90;;;;;;5131256;27;20172;-54
2022/10/08 12:41:19;;;;;;;7.28;1.38;;;16.90;99.90;;;;;;5132765;27;20164;-54
2022/10/08 12:44:06;;;;;;;5.90;1.42;;;16.60;99.90;;;;;;5133038;27;20164;-54
2022/10/08 12:46:31;;;;;;;4.18;1.55;;;16.50;99.90;;;;;;5132933;27;20290;-55
2022/10/08 12:49:08;;;;;;;3.65;1.55;;;16.30;99.90;;;;;;5132869;27;20244;-55
2022/10/08 12:52:04;;;;;;;3.67;1.50;;;15.90;99.90;;;;;;5133448;27;20171;-55
2022/10/08 12:54:31;;;;;;;6.10;1.52;;;15.80;99.90;;;;;;5132820;27;20160;-55
2022/10/08 12:56:57;;;;;;;4.35;1.27;;;16.10;99.90;;;;;;5132644;27;20212;-55
2022/10/08 12:59:25;;;;;;;5.63;1.40;;;16.50;99.90;;;;;;5132737;27;20625;-55
2022/10/08 13:01:53;;;;;;;6.05;1.80;;;16.80;99.90;;;;;;5132680;27;20222;-54
2022/10/08 13:04:23;;;;;;;3.63;1.33;;;16.90;99.90;;;;;;5132671;27;20168;-55
2022/10/08 13:06:51;;;;;;;4.68;1.45;;;17.00;99.90;;;;;;5132703;27;20203;-55